sensor_id;sensor_type;location;lat;lon;timestamp;P1;durP1;ratioP1;P2;durP2;ratioP2
4448;SDS011;2237;51.870;6.160;2023-07-16T00:00:17;2.95;;;2.00;;
4448;SDS011;2237;51.870;6.160;2023-07-16T00:02:45;6.78;;;2.28;;
4448;SDS011;2237;51.870;6.160;2023-07-16T00:05:11;4.90;;;2.30;;
4448;SDS011;2237;51.870;6.160;2023-07-16T00:07:38;7.15;;;2.30;;
4448;SDS011;2237;51.870;6.160;2023-07-16T00:10:04;4.93;;;2.45;;
4448;SDS011;2237;51.870;6.160;2023-07-16T00:12:31;3.95;;;2.40;;
4448;SDS011;2237;51.870;6.160;2023-07-16T00:14:57;7.93;;;2.90;;
4448;SDS011;2237;51.870;6.160;2023-07-16T00:17:24;5.80;;;2.72;;
4448;SDS011;2237;51.870;6.160;2023-07-16T00:19:50;5.35;;;2.80;;
4448;SDS011;2237;51.870;6.160;2023-07-16T00:22:17;5.47;;;2.40;;
4448;SDS011;2237;51.870;6.160;2023-07-16T00:24:43;4.30;;;2.60;;
4448;SDS011;2237;51.870;6.160;2023-07-16T00:27:10;4.72;;;2.63;;
4448;SDS011;2237;51.870;6.160;2023-07-16T00:29:36;6.75;;;2.53;;
4448;SDS011;2237;51.870;6.160;2023-07-16T00:32:02;7.03;;;2.60;;
4448;SDS011;2237;51.870;6.160;2023-07-16T00:34:29;7.93;;;3.28;;
4448;SDS011;2237;51.870;6.160;2023-07-16T00:36:55;5.93;;;2.70;;
4448;SDS011;2237;51.870;6.160;2023-07-16T00:39:28;5.15;;;2.38;;
4448;SDS011;2237;51.870;6.160;2023-07-16T00:41:55;7.35;;;2.58;;
4448;SDS011;2237;51.870;6.160;2023-07-16T00:44:21;7.75;;;2.67;;
4448;SDS011;2237;51.870;6.160;2023-07-16T00:46:49;5.78;;;2.20;;
4448;SDS011;2237;51.870;6.160;2023-07-16T00:49:16;5.75;;;1.83;;
4448;SDS011;2237;51.870;6.160;2023-07-16T00:51:43;8.85;;;2.22;;
4448;SDS011;2237;51.870;6.160;2023-07-16T00:54:09;5.40;;;2.00;;
4448;SDS011;2237;51.870;6.160;2023-07-16T00:56:37;4.85;;;1.77;;
4448;SDS011;2237;51.870;6.160;2023-07-16T00:59:04;4.30;;;1.58;;
4448;SDS011;2237;51.870;6.160;2023-07-16T01:01:30;6.28;;;1.50;;
4448;SDS011;2237;51.870;6.160;2023-07-16T01:03:57;5.47;;;1.95;;
4448;SDS011;2237;51.870;6.160;2023-07-16T01:06:46;5.70;;;1.60;;
4448;SDS011;2237;51.870;6.160;2023-07-16T01:11:44;7.13;;;1.92;;
4448;SDS011;2237;51.870;6.160;2023-07-16T01:14:12;7.75;;;1.92;;
4448;SDS011;2237;51.870;6.160;2023-07-16T01:16:40;6.75;;;1.50;;
4448;SDS011;2237;51.870;6.160;2023-07-16T01:19:08;5.32;;;1.67;;
4448;SDS011;2237;51.870;6.160;2023-07-16T01:21:40;4.45;;;1.40;;
4448;SDS011;2237;51.870;6.160;2023-07-16T01:30:23;4.18;;;1.30;;
4448;SDS011;2237;51.870;6.160;2023-07-16T01:32:53;5.85;;;1.67;;
4448;SDS011;2237;51.870;6.160;2023-07-16T01:35:21;7.65;;;1.70;;
4448;SDS011;2237;51.870;6.160;2023-07-16T01:37:47;4.55;;;1.40;;
4448;SDS011;2237;51.870;6.160;2023-07-16T01:40:14;7.55;;;1.80;;
4448;SDS011;2237;51.870;6.160;2023-07-16T01:42:40;4.43;;;2.00;;
4448;SDS011;2237;51.870;6.160;2023-07-16T01:45:07;4.70;;;1.38;;
4448;SDS011;2237;51.870;6.160;2023-07-16T01:47:40;3.85;;;1.55;;
4448;SDS011;2237;51.870;6.160;2023-07-16T01:50:15;6.93;;;1.50;;
4448;SDS011;2237;51.870;6.160;2023-07-16T01:52:42;5.68;;;1.48;;
4448;SDS011;2237;51.870;6.160;2023-07-16T01:55:08;3.50;;;1.60;;
4448;SDS011;2237;51.870;6.160;2023-07-16T01:57:34;2.55;;;1.40;;
4448;SDS011;2237;51.870;6.160;2023-07-16T02:00:01;3.53;;;1.50;;
4448;SDS011;2237;51.870;6.160;2023-07-16T02:02:28;11.40;;;2.33;;
4448;SDS011;2237;51.870;6.160;2023-07-16T02:04:55;4.72;;;1.70;;
4448;SDS011;2237;51.870;6.160;2023-07-16T02:07:21;8.27;;;2.30;;
4448;SDS011;2237;51.870;6.160;2023-07-16T02:09:49;3.65;;;1.55;;
4448;SDS011;2237;51.870;6.160;2023-07-16T02:12:16;6.93;;;1.40;;
4448;SDS011;2237;51.870;6.160;2023-07-16T02:14:42;6.13;;;1.52;;
4448;SDS011;2237;51.870;6.160;2023-07-16T02:17:09;7.97;;;1.75;;
4448;SDS011;2237;51.870;6.160;2023-07-16T02:19:35;6.50;;;1.98;;
4448;SDS011;2237;51.870;6.160;2023-07-16T02:22:04;6.47;;;1.73;;
4448;SDS011;2237;51.870;6.160;2023-07-16T02:24:31;5.03;;;1.70;;
4448;SDS011;2237;51.870;6.160;2023-07-16T02:26:57;7.40;;;2.00;;
4448;SDS011;2237;51.870;6.160;2023-07-16T02:29:24;5.60;;;2.22;;
4448;SDS011;2237;51.870;6.160;2023-07-16T02:31:50;8.70;;;2.25;;
4448;SDS011;2237;51.870;6.160;2023-07-16T02:34:16;8.15;;;2.47;;
4448;SDS011;2237;51.870;6.160;2023-07-16T02:36:43;6.18;;;2.38;;
4448;SDS011;2237;51.870;6.160;2023-07-16T02:39:09;5.93;;;2.42;;
4448;SDS011;2237;51.870;6.160;2023-07-16T02:41:36;9.38;;;2.78;;
4448;SDS011;2237;51.870;6.160;2023-07-16T02:44:04;5.40;;;2.20;;
4448;SDS011;2237;51.870;6.160;2023-07-16T02:46:31;5.18;;;2.58;;
4448;SDS011;2237;51.870;6.160;2023-07-16T02:48:58;5.95;;;2.25;;
4448;SDS011;2237;51.870;6.160;2023-07-16T02:51:24;5.88;;;2.50;;
4448;SDS011;2237;51.870;6.160;2023-07-16T02:53:51;8.15;;;2.50;;
4448;SDS011;2237;51.870;6.160;2023-07-16T02:56:17;10.07;;;2.78;;
4448;SDS011;2237;51.870;6.160;2023-07-16T02:58:44;5.20;;;2.40;;
4448;SDS011;2237;51.870;6.160;2023-07-16T03:01:10;4.72;;;2.30;;
4448;SDS011;2237;51.870;6.160;2023-07-16T03:03:38;5.10;;;2.00;;
4448;SDS011;2237;51.870;6.160;2023-07-16T03:06:04;6.93;;;2.50;;
4448;SDS011;2237;51.870;6.160;2023-07-16T03:08:31;6.03;;;2.33;;
4448;SDS011;2237;51.870;6.160;2023-07-16T03:10:57;7.03;;;2.08;;
4448;SDS011;2237;51.870;6.160;2023-07-16T03:13:24;9.13;;;2.20;;
4448;SDS011;2237;51.870;6.160;2023-07-16T03:15:50;7.22;;;1.98;;
4448;SDS011;2237;51.870;6.160;2023-07-16T03:18:18;6.88;;;2.40;;
4448;SDS011;2237;51.870;6.160;2023-07-16T03:20:45;8.88;;;2.47;;
4448;SDS011;2237;51.870;6.160;2023-07-16T03:23:11;4.10;;;2.22;;
4448;SDS011;2237;51.870;6.160;2023-07-16T03:25:38;5.03;;;2.05;;
4448;SDS011;2237;51.870;6.160;2023-07-16T03:28:05;7.75;;;2.15;;
4448;SDS011;2237;51.870;6.160;2023-07-16T03:30:31;6.05;;;1.75;;
4448;SDS011;2237;51.870;6.160;2023-07-16T03:32:59;4.78;;;1.60;;
4448;SDS011;2237;51.870;6.160;2023-07-16T03:35:25;8.43;;;2.15;;
4448;SDS011;2237;51.870;6.160;2023-07-16T03:37:52;6.60;;;2.00;;
4448;SDS011;2237;51.870;6.160;2023-07-16T03:40:23;6.50;;;2.17;;
4448;SDS011;2237;51.870;6.160;2023-07-16T03:42:51;9.95;;;2.45;;
4448;SDS011;2237;51.870;6.160;2023-07-16T03:45:18;8.10;;;1.80;;
4448;SDS011;2237;51.870;6.160;2023-07-16T03:47:45;5.18;;;2.10;;
4448;SDS011;2237;51.870;6.160;2023-07-16T03:50:12;6.22;;;3.10;;
4448;SDS011;2237;51.870;6.160;2023-07-16T03:52:38;7.07;;;2.92;;
4448;SDS011;2237;51.870;6.160;2023-07-16T03:55:04;7.95;;;3.40;;
4448;SDS011;2237;51.870;6.160;2023-07-16T03:57:32;7.63;;;2.80;;
4448;SDS011;2237;51.870;6.160;2023-07-16T03:59:59;5.18;;;2.70;;
4448;SDS011;2237;51.870;6.160;2023-07-16T04:02:25;6.70;;;2.38;;
4448;SDS011;2237;51.870;6.160;2023-07-16T04:04:52;7.57;;;2.80;;
4448;SDS011;2237;51.870;6.160;2023-07-16T04:07:18;4.38;;;2.05;;
4448;SDS011;2237;51.870;6.160;2023-07-16T04:09:45;4.40;;;2.22;;
4448;SDS011;2237;51.870;6.160;2023-07-16T04:12:11;4.90;;;2.33;;
4448;SDS011;2237;51.870;6.160;2023-07-16T04:14:37;6.03;;;1.92;;
4448;SDS011;2237;51.870;6.160;2023-07-16T04:17:04;7.15;;;2.70;;
4448;SDS011;2237;51.870;6.160;2023-07-16T04:19:30;5.90;;;2.75;;
4448;SDS011;2237;51.870;6.160;2023-07-16T04:21:57;7.30;;;2.83;;
4448;SDS011;2237;51.870;6.160;2023-07-16T04:24:23;6.78;;;2.63;;
4448;SDS011;2237;51.870;6.160;2023-07-16T04:26:50;9.18;;;2.50;;
4448;SDS011;2237;51.870;6.160;2023-07-16T04:29:17;7.57;;;2.88;;
4448;SDS011;2237;51.870;6.160;2023-07-16T04:31:43;9.20;;;2.67;;
4448;SDS011;2237;51.870;6.160;2023-07-16T04:34:09;6.50;;;2.40;;
4448;SDS011;2237;51.870;6.160;2023-07-16T04:36:36;7.03;;;2.40;;
4448;SDS011;2237;51.870;6.160;2023-07-16T04:39:02;6.47;;;2.05;;
4448;SDS011;2237;51.870;6.160;2023-07-16T04:41:29;11.88;;;2.45;;
4448;SDS011;2237;51.870;6.160;2023-07-16T04:43:56;6.70;;;2.10;;
4448;SDS011;2237;51.870;6.160;2023-07-16T04:46:22;7.05;;;2.67;;
4448;SDS011;2237;51.870;6.160;2023-07-16T04:48:48;5.30;;;2.15;;
4448;SDS011;2237;51.870;6.160;2023-07-16T04:51:15;4.97;;;1.85;;
4448;SDS011;2237;51.870;6.160;2023-07-16T04:53:42;6.03;;;1.75;;
4448;SDS011;2237;51.870;6.160;2023-07-16T04:56:12;8.65;;;2.03;;
4448;SDS011;2237;51.870;6.160;2023-07-16T04:58:39;5.85;;;2.38;;
4448;SDS011;2237;51.870;6.160;2023-07-16T05:01:06;7.53;;;2.38;;
4448;SDS011;2237;51.870;6.160;2023-07-16T05:03:34;6.80;;;2.20;;
4448;SDS011;2237;51.870;6.160;2023-07-16T05:06:01;9.15;;;2.58;;
4448;SDS011;2237;51.870;6.160;2023-07-16T05:08:27;7.60;;;1.95;;
4448;SDS011;2237;51.870;6.160;2023-07-16T05:10:54;6.90;;;2.00;;
4448;SDS011;2237;51.870;6.160;2023-07-16T05:13:20;6.10;;;2.00;;
4448;SDS011;2237;51.870;6.160;2023-07-16T05:15:47;5.95;;;2.08;;
4448;SDS011;2237;51.870;6.160;2023-07-16T05:18:15;6.72;;;2.67;;
4448;SDS011;2237;51.870;6.160;2023-07-16T05:20:42;10.07;;;2.67;;
4448;SDS011;2237;51.870;6.160;2023-07-16T05:23:09;7.72;;;2.38;;
4448;SDS011;2237;51.870;6.160;2023-07-16T05:25:36;9.93;;;2.60;;
4448;SDS011;2237;51.870;6.160;2023-07-16T05:28:03;6.85;;;2.60;;
4448;SDS011;2237;51.870;6.160;2023-07-16T05:30:29;6.40;;;2.45;;
4448;SDS011;2237;51.870;6.160;2023-07-16T05:32:55;13.27;;;3.05;;
4448;SDS011;2237;51.870;6.160;2023-07-16T05:35:22;5.50;;;2.75;;
4448;SDS011;2237;51.870;6.160;2023-07-16T05:37:48;5.28;;;2.00;;
4448;SDS011;2237;51.870;6.160;2023-07-16T05:40:15;6.43;;;2.03;;
4448;SDS011;2237;51.870;6.160;2023-07-16T05:42:41;6.13;;;2.30;;
4448;SDS011;2237;51.870;6.160;2023-07-16T05:45:08;7.55;;;2.45;;
4448;SDS011;2237;51.870;6.160;2023-07-16T05:47:34;8.50;;;2.58;;
4448;SDS011;2237;51.870;6.160;2023-07-16T05:50:01;7.60;;;2.50;;
4448;SDS011;2237;51.870;6.160;2023-07-16T05:52:27;10.60;;;2.50;;
4448;SDS011;2237;51.870;6.160;2023-07-16T05:54:54;8.60;;;3.17;;
4448;SDS011;2237;51.870;6.160;2023-07-16T05:57:20;5.65;;;2.00;;
4448;SDS011;2237;51.870;6.160;2023-07-16T05:59:47;7.45;;;2.80;;
4448;SDS011;2237;51.870;6.160;2023-07-16T06:02:13;7.57;;;2.95;;
4448;SDS011;2237;51.870;6.160;2023-07-16T06:04:39;9.85;;;2.80;;
4448;SDS011;2237;51.870;6.160;2023-07-16T06:07:06;7.30;;;2.13;;
4448;SDS011;2237;51.870;6.160;2023-07-16T06:09:33;15.35;;;3.25;;
4448;SDS011;2237;51.870;6.160;2023-07-16T06:11:59;7.30;;;3.35;;
4448;SDS011;2237;51.870;6.160;2023-07-16T06:14:26;6.93;;;2.70;;
4448;SDS011;2237;51.870;6.160;2023-07-16T06:16:52;8.20;;;3.08;;
4448;SDS011;2237;51.870;6.160;2023-07-16T06:19:19;6.15;;;2.95;;
4448;SDS011;2237;51.870;6.160;2023-07-16T06:21:45;7.28;;;2.97;;
4448;SDS011;2237;51.870;6.160;2023-07-16T06:24:12;8.15;;;3.08;;
4448;SDS011;2237;51.870;6.160;2023-07-16T06:26:42;10.68;;;3.42;;
4448;SDS011;2237;51.870;6.160;2023-07-16T06:29:08;7.80;;;2.63;;
4448;SDS011;2237;51.870;6.160;2023-07-16T06:31:35;9.10;;;2.60;;
4448;SDS011;2237;51.870;6.160;2023-07-16T06:34:01;9.90;;;2.67;;
4448;SDS011;2237;51.870;6.160;2023-07-16T06:36:28;6.57;;;2.80;;
4448;SDS011;2237;51.870;6.160;2023-07-16T06:38:54;7.20;;;2.42;;
4448;SDS011;2237;51.870;6.160;2023-07-16T06:41:21;8.93;;;3.10;;
4448;SDS011;2237;51.870;6.160;2023-07-16T06:43:47;5.93;;;2.88;;
4448;SDS011;2237;51.870;6.160;2023-07-16T06:46:13;8.45;;;2.97;;
4448;SDS011;2237;51.870;6.160;2023-07-16T06:48:41;7.80;;;3.00;;
4448;SDS011;2237;51.870;6.160;2023-07-16T06:51:07;13.30;;;3.50;;
4448;SDS011;2237;51.870;6.160;2023-07-16T06:53:33;9.52;;;3.05;;
4448;SDS011;2237;51.870;6.160;2023-07-16T06:56:00;8.05;;;2.92;;
4448;SDS011;2237;51.870;6.160;2023-07-16T06:58:32;8.65;;;2.70;;
4448;SDS011;2237;51.870;6.160;2023-07-16T07:00:59;5.70;;;2.63;;
4448;SDS011;2237;51.870;6.160;2023-07-16T07:03:26;7.15;;;2.85;;
4448;SDS011;2237;51.870;6.160;2023-07-16T07:05:53;4.70;;;1.83;;
4448;SDS011;2237;51.870;6.160;2023-07-16T07:08:19;7.60;;;3.05;;
4448;SDS011;2237;51.870;6.160;2023-07-16T07:10:49;8.38;;;2.63;;
4448;SDS011;2237;51.870;6.160;2023-07-16T07:13:16;4.85;;;2.33;;
4448;SDS011;2237;51.870;6.160;2023-07-16T07:15:42;14.75;;;3.97;;
4448;SDS011;2237;51.870;6.160;2023-07-16T07:18:09;5.55;;;2.47;;
4448;SDS011;2237;51.870;6.160;2023-07-16T07:20:35;7.60;;;2.60;;
4448;SDS011;2237;51.870;6.160;2023-07-16T07:23:02;6.43;;;3.10;;
4448;SDS011;2237;51.870;6.160;2023-07-16T07:25:31;8.70;;;2.72;;
4448;SDS011;2237;51.870;6.160;2023-07-16T07:27:58;9.82;;;2.13;;
4448;SDS011;2237;51.870;6.160;2023-07-16T07:30:24;13.52;;;3.30;;
4448;SDS011;2237;51.870;6.160;2023-07-16T07:32:51;10.57;;;3.65;;
4448;SDS011;2237;51.870;6.160;2023-07-16T07:35:17;7.13;;;3.05;;
4448;SDS011;2237;51.870;6.160;2023-07-16T07:37:44;7.15;;;3.40;;
4448;SDS011;2237;51.870;6.160;2023-07-16T07:40:10;5.22;;;2.47;;
4448;SDS011;2237;51.870;6.160;2023-07-16T07:42:37;6.78;;;2.92;;
4448;SDS011;2237;51.870;6.160;2023-07-16T07:45:03;8.25;;;2.70;;
4448;SDS011;2237;51.870;6.160;2023-07-16T07:47:31;10.40;;;4.45;;
4448;SDS011;2237;51.870;6.160;2023-07-16T07:49:57;8.50;;;3.08;;
4448;SDS011;2237;51.870;6.160;2023-07-16T07:52:24;7.50;;;2.78;;
4448;SDS011;2237;51.870;6.160;2023-07-16T07:54:50;6.88;;;2.33;;
4448;SDS011;2237;51.870;6.160;2023-07-16T07:57:17;11.00;;;3.33;;
4448;SDS011;2237;51.870;6.160;2023-07-16T07:59:44;7.22;;;2.95;;
4448;SDS011;2237;51.870;6.160;2023-07-16T08:02:10;8.30;;;3.08;;
4448;SDS011;2237;51.870;6.160;2023-07-16T08:04:37;8.73;;;3.58;;
4448;SDS011;2237;51.870;6.160;2023-07-16T08:07:03;6.22;;;2.70;;
4448;SDS011;2237;51.870;6.160;2023-07-16T08:09:30;6.88;;;3.22;;
4448;SDS011;2237;51.870;6.160;2023-07-16T08:11:56;5.07;;;2.53;;
4448;SDS011;2237;51.870;6.160;2023-07-16T08:14:23;6.28;;;2.90;;
4448;SDS011;2237;51.870;6.160;2023-07-16T08:16:49;8.63;;;2.47;;
4448;SDS011;2237;51.870;6.160;2023-07-16T08:19:16;6.40;;;2.08;;
4448;SDS011;2237;51.870;6.160;2023-07-16T08:21:43;6.97;;;3.22;;
4448;SDS011;2237;51.870;6.160;2023-07-16T08:24:10;10.43;;;2.92;;
4448;SDS011;2237;51.870;6.160;2023-07-16T08:26:36;9.25;;;2.65;;
4448;SDS011;2237;51.870;6.160;2023-07-16T08:29:03;7.22;;;3.17;;
4448;SDS011;2237;51.870;6.160;2023-07-16T08:31:29;12.35;;;3.83;;
4448;SDS011;2237;51.870;6.160;2023-07-16T08:33:56;13.18;;;3.15;;
4448;SDS011;2237;51.870;6.160;2023-07-16T08:36:23;5.78;;;2.72;;
4448;SDS011;2237;51.870;6.160;2023-07-16T08:38:50;7.65;;;2.85;;
4448;SDS011;2237;51.870;6.160;2023-07-16T08:41:16;7.93;;;2.97;;
4448;SDS011;2237;51.870;6.160;2023-07-16T08:43:45;8.25;;;2.97;;
4448;SDS011;2237;51.870;6.160;2023-07-16T08:46:16;6.05;;;3.05;;
4448;SDS011;2237;51.870;6.160;2023-07-16T08:48:44;8.02;;;2.55;;
4448;SDS011;2237;51.870;6.160;2023-07-16T08:51:13;10.30;;;3.15;;
4448;SDS011;2237;51.870;6.160;2023-07-16T08:53:41;7.28;;;3.00;;
4448;SDS011;2237;51.870;6.160;2023-07-16T08:56:08;7.55;;;3.50;;
4448;SDS011;2237;51.870;6.160;2023-07-16T08:58:36;5.70;;;3.00;;
4448;SDS011;2237;51.870;6.160;2023-07-16T09:01:03;10.50;;;3.58;;
4448;SDS011;2237;51.870;6.160;2023-07-16T09:03:31;9.63;;;3.40;;
4448;SDS011;2237;51.870;6.160;2023-07-16T09:05:58;6.20;;;2.33;;
4448;SDS011;2237;51.870;6.160;2023-07-16T09:08:24;5.07;;;2.42;;
4448;SDS011;2237;51.870;6.160;2023-07-16T09:10:55;7.78;;;3.20;;
4448;SDS011;2237;51.870;6.160;2023-07-16T09:13:22;7.18;;;2.95;;
4448;SDS011;2237;51.870;6.160;2023-07-16T09:15:54;5.55;;;2.60;;
4448;SDS011;2237;51.870;6.160;2023-07-16T09:18:22;7.80;;;3.00;;
4448;SDS011;2237;51.870;6.160;2023-07-16T09:20:54;5.57;;;2.50;;
4448;SDS011;2237;51.870;6.160;2023-07-16T09:23:23;5.70;;;2.53;;
4448;SDS011;2237;51.870;6.160;2023-07-16T09:25:53;6.07;;;2.97;;
4448;SDS011;2237;51.870;6.160;2023-07-16T09:28:23;6.40;;;2.17;;
4448;SDS011;2237;51.870;6.160;2023-07-16T09:30:51;9.55;;;2.67;;
4448;SDS011;2237;51.870;6.160;2023-07-16T09:33:18;6.50;;;2.50;;
4448;SDS011;2237;51.870;6.160;2023-07-16T09:35:49;8.80;;;2.47;;
4448;SDS011;2237;51.870;6.160;2023-07-16T09:38:17;7.47;;;2.50;;
4448;SDS011;2237;51.870;6.160;2023-07-16T09:40:44;9.25;;;3.15;;
4448;SDS011;2237;51.870;6.160;2023-07-16T09:43:11;9.95;;;2.58;;
4448;SDS011;2237;51.870;6.160;2023-07-16T09:45:39;8.50;;;2.42;;
4448;SDS011;2237;51.870;6.160;2023-07-16T09:48:06;6.68;;;2.63;;
4448;SDS011;2237;51.870;6.160;2023-07-16T09:50:33;7.80;;;2.90;;
4448;SDS011;2237;51.870;6.160;2023-07-16T09:53:01;7.82;;;2.42;;
4448;SDS011;2237;51.870;6.160;2023-07-16T09:55:33;7.40;;;2.53;;
4448;SDS011;2237;51.870;6.160;2023-07-16T10:00:29;5.07;;;2.10;;
4448;SDS011;2237;51.870;6.160;2023-07-16T10:02:59;5.55;;;2.63;;
4448;SDS011;2237;51.870;6.160;2023-07-16T10:05:27;7.10;;;2.60;;
4448;SDS011;2237;51.870;6.160;2023-07-16T10:07:57;6.05;;;2.13;;
4448;SDS011;2237;51.870;6.160;2023-07-16T10:10:38;6.72;;;2.55;;
4448;SDS011;2237;51.870;6.160;2023-07-16T10:13:06;6.90;;;2.35;;
4448;SDS011;2237;51.870;6.160;2023-07-16T10:15:34;6.95;;;2.67;;
4448;SDS011;2237;51.870;6.160;2023-07-16T10:18:00;5.80;;;2.33;;
4448;SDS011;2237;51.870;6.160;2023-07-16T10:20:31;4.10;;;1.73;;
4448;SDS011;2237;51.870;6.160;2023-07-16T10:23:09;4.13;;;2.25;;
4448;SDS011;2237;51.870;6.160;2023-07-16T10:25:40;4.57;;;2.05;;
4448;SDS011;2237;51.870;6.160;2023-07-16T10:28:23;6.30;;;2.40;;
4448;SDS011;2237;51.870;6.160;2023-07-16T10:30:50;7.25;;;2.55;;
4448;SDS011;2237;51.870;6.160;2023-07-16T10:33:16;4.40;;;2.20;;
4448;SDS011;2237;51.870;6.160;2023-07-16T10:35:44;7.55;;;2.35;;
4448;SDS011;2237;51.870;6.160;2023-07-16T10:38:12;5.60;;;2.33;;
4448;SDS011;2237;51.870;6.160;2023-07-16T10:40:43;4.07;;;1.92;;
4448;SDS011;2237;51.870;6.160;2023-07-16T10:43:11;6.25;;;2.53;;
4448;SDS011;2237;51.870;6.160;2023-07-16T10:45:38;7.50;;;2.13;;
4448;SDS011;2237;51.870;6.160;2023-07-16T10:48:05;5.45;;;2.05;;
4448;SDS011;2237;51.870;6.160;2023-07-16T10:50:32;6.35;;;2.50;;
4448;SDS011;2237;51.870;6.160;2023-07-16T10:53:00;7.45;;;2.42;;
4448;SDS011;2237;51.870;6.160;2023-07-16T10:55:27;8.02;;;2.63;;
4448;SDS011;2237;51.870;6.160;2023-07-16T10:57:55;4.20;;;2.15;;
4448;SDS011;2237;51.870;6.160;2023-07-16T11:00:22;7.20;;;1.73;;
4448;SDS011;2237;51.870;6.160;2023-07-16T11:02:49;4.40;;;2.28;;
4448;SDS011;2237;51.870;6.160;2023-07-16T11:05:17;6.93;;;2.38;;
4448;SDS011;2237;51.870;6.160;2023-07-16T11:07:45;5.35;;;2.50;;
4448;SDS011;2237;51.870;6.160;2023-07-16T11:10:19;4.88;;;1.77;;
4448;SDS011;2237;51.870;6.160;2023-07-16T11:12:50;5.82;;;2.45;;
4448;SDS011;2237;51.870;6.160;2023-07-16T11:15:18;5.68;;;2.38;;
4448;SDS011;2237;51.870;6.160;2023-07-16T11:17:48;6.30;;;2.40;;
4448;SDS011;2237;51.870;6.160;2023-07-16T11:20:16;4.03;;;2.15;;
4448;SDS011;2237;51.870;6.160;2023-07-16T11:22:46;5.97;;;2.70;;
4448;SDS011;2237;51.870;6.160;2023-07-16T11:25:13;4.63;;;2.28;;
4448;SDS011;2237;51.870;6.160;2023-07-16T11:27:40;3.97;;;1.83;;
4448;SDS011;2237;51.870;6.160;2023-07-16T11:30:08;4.65;;;1.95;;
4448;SDS011;2237;51.870;6.160;2023-07-16T11:32:41;4.07;;;2.00;;
4448;SDS011;2237;51.870;6.160;2023-07-16T11:35:11;5.95;;;2.25;;
4448;SDS011;2237;51.870;6.160;2023-07-16T11:37:42;4.35;;;2.13;;
4448;SDS011;2237;51.870;6.160;2023-07-16T11:40:09;3.70;;;1.95;;
4448;SDS011;2237;51.870;6.160;2023-07-16T11:42:38;4.25;;;2.08;;
4448;SDS011;2237;51.870;6.160;2023-07-16T11:45:14;5.97;;;2.22;;
4448;SDS011;2237;51.870;6.160;2023-07-16T11:47:41;7.85;;;1.95;;
4448;SDS011;2237;51.870;6.160;2023-07-16T11:50:10;6.28;;;1.63;;
4448;SDS011;2237;51.870;6.160;2023-07-16T11:52:38;5.82;;;1.98;;
4448;SDS011;2237;51.870;6.160;2023-07-16T11:55:05;6.97;;;1.92;;
4448;SDS011;2237;51.870;6.160;2023-07-16T11:57:31;5.32;;;1.65;;
4448;SDS011;2237;51.870;6.160;2023-07-16T11:59:58;5.85;;;1.90;;
4448;SDS011;2237;51.870;6.160;2023-07-16T12:02:25;3.58;;;1.58;;
4448;SDS011;2237;51.870;6.160;2023-07-16T12:04:52;3.38;;;1.85;;
4448;SDS011;2237;51.870;6.160;2023-07-16T12:07:30;7.20;;;2.15;;
4448;SDS011;2237;51.870;6.160;2023-07-16T12:09:58;5.38;;;1.95;;
4448;SDS011;2237;51.870;6.160;2023-07-16T12:12:25;3.30;;;1.80;;
4448;SDS011;2237;51.870;6.160;2023-07-16T12:14:51;4.47;;;2.13;;
4448;SDS011;2237;51.870;6.160;2023-07-16T12:17:20;8.60;;;2.17;;
4448;SDS011;2237;51.870;6.160;2023-07-16T12:19:47;4.32;;;1.67;;
4448;SDS011;2237;51.870;6.160;2023-07-16T12:22:13;4.47;;;1.85;;
4448;SDS011;2237;51.870;6.160;2023-07-16T12:24:43;5.18;;;1.80;;
4448;SDS011;2237;51.870;6.160;2023-07-16T12:27:10;4.07;;;1.42;;
4448;SDS011;2237;51.870;6.160;2023-07-16T12:29:36;3.20;;;1.58;;
4448;SDS011;2237;51.870;6.160;2023-07-16T12:32:03;5.80;;;2.17;;
4448;SDS011;2237;51.870;6.160;2023-07-16T12:34:30;4.28;;;1.88;;
4448;SDS011;2237;51.870;6.160;2023-07-16T12:36:56;4.35;;;2.13;;
4448;SDS011;2237;51.870;6.160;2023-07-16T12:39:23;5.47;;;2.13;;
4448;SDS011;2237;51.870;6.160;2023-07-16T12:41:49;3.38;;;1.50;;
4448;SDS011;2237;51.870;6.160;2023-07-16T12:44:15;5.80;;;1.90;;
4448;SDS011;2237;51.870;6.160;2023-07-16T12:46:42;6.10;;;1.83;;
4448;SDS011;2237;51.870;6.160;2023-07-16T12:49:08;6.60;;;2.08;;
4448;SDS011;2237;51.870;6.160;2023-07-16T12:51:35;5.55;;;2.25;;
4448;SDS011;2237;51.870;6.160;2023-07-16T12:54:01;6.60;;;1.83;;
4448;SDS011;2237;51.870;6.160;2023-07-16T12:56:28;5.13;;;2.05;;
4448;SDS011;2237;51.870;6.160;2023-07-16T12:58:54;3.38;;;1.67;;
4448;SDS011;2237;51.870;6.160;2023-07-16T13:01:21;7.25;;;2.58;;
4448;SDS011;2237;51.870;6.160;2023-07-16T13:03:47;3.10;;;1.70;;
4448;SDS011;2237;51.870;6.160;2023-07-16T13:06:14;5.82;;;1.85;;
4448;SDS011;2237;51.870;6.160;2023-07-16T13:08:40;4.07;;;1.60;;
4448;SDS011;2237;51.870;6.160;2023-07-16T13:11:07;6.93;;;1.95;;
4448;SDS011;2237;51.870;6.160;2023-07-16T13:13:33;5.85;;;2.22;;
4448;SDS011;2237;51.870;6.160;2023-07-16T13:16:01;5.15;;;2.08;;
4448;SDS011;2237;51.870;6.160;2023-07-16T13:18:27;6.57;;;2.40;;
4448;SDS011;2237;51.870;6.160;2023-07-16T13:20:54;4.88;;;2.28;;
4448;SDS011;2237;51.870;6.160;2023-07-16T13:23:21;5.63;;;2.25;;
4448;SDS011;2237;51.870;6.160;2023-07-16T13:25:47;3.38;;;1.70;;
4448;SDS011;2237;51.870;6.160;2023-07-16T13:28:17;8.32;;;2.47;;
4448;SDS011;2237;51.870;6.160;2023-07-16T13:30:43;6.53;;;2.10;;
4448;SDS011;2237;51.870;6.160;2023-07-16T13:33:10;8.75;;;3.10;;
4448;SDS011;2237;51.870;6.160;2023-07-16T13:35:36;4.28;;;1.70;;
4448;SDS011;2237;51.870;6.160;2023-07-16T13:38:03;7.32;;;2.85;;
4448;SDS011;2237;51.870;6.160;2023-07-16T13:40:29;9.20;;;2.60;;
4448;SDS011;2237;51.870;6.160;2023-07-16T13:42:56;5.10;;;2.00;;
4448;SDS011;2237;51.870;6.160;2023-07-16T13:45:23;6.05;;;2.28;;
4448;SDS011;2237;51.870;6.160;2023-07-16T13:47:50;3.85;;;1.65;;
4448;SDS011;2237;51.870;6.160;2023-07-16T13:50:20;6.67;;;2.77;;
4448;SDS011;2237;51.870;6.160;2023-07-16T13:52:46;4.50;;;1.70;;
4448;SDS011;2237;51.870;6.160;2023-07-16T13:55:13;4.05;;;2.20;;
4448;SDS011;2237;51.870;6.160;2023-07-16T13:57:39;4.43;;;2.25;;
4448;SDS011;2237;51.870;6.160;2023-07-16T14:00:07;3.78;;;2.47;;
4448;SDS011;2237;51.870;6.160;2023-07-16T14:02:36;5.53;;;2.42;;
4448;SDS011;2237;51.870;6.160;2023-07-16T14:05:02;4.93;;;2.22;;
4448;SDS011;2237;51.870;6.160;2023-07-16T14:07:30;4.93;;;2.50;;
4448;SDS011;2237;51.870;6.160;2023-07-16T14:09:57;4.70;;;2.03;;
4448;SDS011;2237;51.870;6.160;2023-07-16T14:12:23;3.78;;;1.67;;
4448;SDS011;2237;51.870;6.160;2023-07-16T14:14:49;4.30;;;1.70;;
4448;SDS011;2237;51.870;6.160;2023-07-16T14:17:16;4.18;;;1.80;;
4448;SDS011;2237;51.870;6.160;2023-07-16T14:19:42;4.95;;;1.92;;
4448;SDS011;2237;51.870;6.160;2023-07-16T14:22:09;3.00;;;1.63;;
4448;SDS011;2237;51.870;6.160;2023-07-16T14:24:39;4.85;;;1.90;;
4448;SDS011;2237;51.870;6.160;2023-07-16T14:27:06;2.17;;;1.23;;
4448;SDS011;2237;51.870;6.160;2023-07-16T14:29:33;3.75;;;2.13;;
4448;SDS011;2237;51.870;6.160;2023-07-16T14:32:01;2.53;;;1.42;;
4448;SDS011;2237;51.870;6.160;2023-07-16T14:34:28;2.58;;;1.48;;
4448;SDS011;2237;51.870;6.160;2023-07-16T14:36:55;4.13;;;1.77;;
4448;SDS011;2237;51.870;6.160;2023-07-16T14:39:21;4.25;;;1.48;;
4448;SDS011;2237;51.870;6.160;2023-07-16T14:41:50;2.63;;;1.52;;
4448;SDS011;2237;51.870;6.160;2023-07-16T14:44:17;3.67;;;1.55;;
4448;SDS011;2237;51.870;6.160;2023-07-16T14:46:43;3.17;;;1.50;;
4448;SDS011;2237;51.870;6.160;2023-07-16T14:49:10;5.00;;;1.65;;
4448;SDS011;2237;51.870;6.160;2023-07-16T14:51:36;4.55;;;1.70;;
4448;SDS011;2237;51.870;6.160;2023-07-16T14:54:06;3.45;;;1.63;;
4448;SDS011;2237;51.870;6.160;2023-07-16T14:56:34;4.40;;;1.85;;
4448;SDS011;2237;51.870;6.160;2023-07-16T14:59:00;3.78;;;1.77;;
4448;SDS011;2237;51.870;6.160;2023-07-16T15:01:27;4.53;;;1.50;;
4448;SDS011;2237;51.870;6.160;2023-07-16T15:03:53;3.40;;;1.55;;
4448;SDS011;2237;51.870;6.160;2023-07-16T15:06:20;4.18;;;1.60;;
4448;SDS011;2237;51.870;6.160;2023-07-16T15:08:47;2.53;;;1.35;;
4448;SDS011;2237;51.870;6.160;2023-07-16T15:11:14;2.70;;;1.60;;
4448;SDS011;2237;51.870;6.160;2023-07-16T15:13:41;3.55;;;1.30;;
4448;SDS011;2237;51.870;6.160;2023-07-16T15:16:08;5.18;;;1.70;;
4448;SDS011;2237;51.870;6.160;2023-07-16T15:18:34;2.97;;;1.67;;
4448;SDS011;2237;51.870;6.160;2023-07-16T15:21:01;4.63;;;1.48;;
4448;SDS011;2237;51.870;6.160;2023-07-16T15:23:28;4.32;;;1.50;;
4448;SDS011;2237;51.870;6.160;2023-07-16T15:25:55;2.88;;;1.33;;